createdAt,value
2022-09-02T00:02:17.725Z,20.93
2022-09-02T00:04:45.354Z,20.90
2022-09-02T00:07:12.302Z,20.76
2022-09-02T00:09:40.696Z,21.01
2022-09-02T00:12:08.956Z,21.08
2022-09-02T00:14:39.023Z,20.92
2022-09-02T00:17:06.238Z,20.91
2022-09-02T00:19:33.401Z,21.01
2022-09-02T00:22:01.326Z,20.80
2022-09-02T00:24:28.289Z,20.91
2022-09-02T00:26:56.491Z,20.94
2022-09-02T00:29:24.742Z,20.96
2022-09-02T00:31:51.513Z,20.86
2022-09-02T00:34:18.554Z,20.98
2022-09-02T00:36:45.526Z,20.82
2022-09-02T00:39:12.418Z,21.02
2022-09-02T00:41:41.432Z,21.00
2022-09-02T00:44:11.995Z,20.95
2022-09-02T00:46:39.061Z,20.81
2022-09-02T00:49:18.054Z,21.08
2022-09-02T00:51:50.380Z,20.98
2022-09-02T00:54:20.293Z,21.12
2022-09-02T00:56:47.943Z,20.96
2022-09-02T00:59:22.182Z,20.96
2022-09-02T01:01:49.240Z,21.11
2022-09-02T01:04:17.301Z,21.04
2022-09-02T01:06:44.539Z,20.98
2022-09-02T01:09:14.880Z,21.13
2022-09-02T01:11:55.437Z,21.09
2022-09-02T01:14:22.561Z,20.92
2022-09-02T01:16:55.411Z,21.15
2022-09-02T01:19:28.500Z,21.06
2022-09-02T01:21:57.422Z,21.25
2022-09-02T01:24:28.690Z,21.22
2022-09-02T01:26:58.116Z,21.13
2022-09-02T01:29:27.126Z,21.21
2022-09-02T01:31:54.006Z,21.11
2022-09-02T01:34:21.762Z,21.14
2022-09-02T01:36:48.686Z,21.24
2022-09-02T01:39:15.456Z,21.04
2022-09-02T01:41:42.388Z,21.13
2022-09-02T01:44:10.638Z,21.22
2022-09-02T01:46:38.112Z,21.22
2022-09-02T01:49:05.394Z,21.05
2022-09-02T01:51:32.238Z,21.17
2022-09-02T01:53:59.022Z,21.08
2022-09-02T01:56:26.052Z,21.07
2022-09-02T01:58:53.085Z,21.09
2022-09-02T02:01:20.181Z,21.13
2022-09-02T02:03:47.430Z,21.11
2022-09-02T02:06:17.727Z,21.05
2022-09-02T02:08:45.027Z,21.21
2022-09-02T02:11:12.928Z,21.25
2022-09-02T02:13:39.714Z,21.15
2022-09-02T02:16:06.733Z,21.20
2022-09-02T02:18:34.153Z,21.22
2022-09-02T02:21:00.952Z,21.16
2022-09-02T02:23:27.781Z,21.24
2022-09-02T02:25:54.982Z,21.33
2022-09-02T02:28:22.086Z,21.19
2022-09-02T02:30:49.333Z,21.13
2022-09-02T02:33:16.293Z,21.23
2022-09-02T02:35:43.640Z,21.28
2022-09-02T02:38:10.424Z,21.36
2022-09-02T02:40:41.581Z,21.41
2022-09-02T02:43:08.447Z,21.49
2022-09-02T02:45:35.209Z,21.39
2022-09-02T02:48:03.109Z,21.17
2022-09-02T02:50:29.888Z,21.24
2022-09-02T02:52:57.111Z,21.32
2022-09-02T02:55:25.054Z,21.23
2022-09-02T02:57:52.503Z,21.16
2022-09-02T03:00:26.651Z,21.20
2022-09-02T03:02:58.674Z,21.22
2022-09-02T03:05:26.415Z,21.16
2022-09-02T03:07:53.958Z,21.22
2022-09-02T03:10:21.004Z,21.20
2022-09-02T03:12:47.903Z,21.18
2022-09-02T03:15:18.419Z,20.99
2022-09-02T03:17:47.066Z,21.15
2022-09-02T03:20:16.099Z,21.03
2022-09-02T03:22:45.416Z,21.16
2022-09-02T03:25:13.529Z,21.06
2022-09-02T03:27:40.814Z,21.06
2022-09-02T03:30:12.033Z,21.06
2022-09-02T03:32:38.812Z,21.02
2022-09-02T03:35:08.982Z,20.79
2022-09-02T03:37:36.925Z,20.85
2022-09-02T03:40:06.417Z,20.87
2022-09-02T03:42:33.235Z,20.84
2022-09-02T03:45:00.309Z,20.58
2022-09-02T03:47:30.260Z,20.64
2022-09-02T03:49:57.425Z,20.59
2022-09-02T03:52:24.716Z,20.63
2022-09-02T03:54:52.217Z,20.70
2022-09-02T03:57:20.695Z,20.41
2022-09-02T03:59:47.570Z,20.62
2022-09-02T04:02:15.184Z,20.71
2022-09-02T04:04:42.096Z,20.91
2022-09-02T04:07:09.502Z,21.02
2022-09-02T04:09:36.351Z,20.74
2022-09-02T04:12:05.186Z,20.69
2022-09-02T04:14:32.029Z,20.67
2022-09-02T04:16:58.960Z,20.66
2022-09-02T04:19:25.798Z,20.57
2022-09-02T04:21:52.664Z,20.62
2022-09-02T04:24:19.553Z,20.40
2022-09-02T04:26:46.428Z,20.54
2022-09-02T04:29:13.583Z,20.49
2022-09-02T04:31:40.569Z,20.34
2022-09-02T04:34:07.635Z,20.46
2022-09-02T04:36:35.041Z,20.73
2022-09-02T04:39:01.892Z,20.67
2022-09-02T04:41:30.482Z,20.56
2022-09-02T04:44:00.013Z,20.45
2022-09-02T04:46:34.023Z,20.51
2022-09-02T04:49:02.528Z,20.44
2022-09-02T04:51:29.324Z,20.47
2022-09-02T04:53:56.440Z,20.44
2022-09-02T04:56:26.846Z,20.37
2022-09-02T04:58:55.005Z,20.41
2022-09-02T05:01:28.573Z,20.33
2022-09-02T05:03:55.999Z,20.17
2022-09-02T05:06:29.168Z,20.33
2022-09-02T05:08:57.165Z,20.33
2022-09-02T05:11:29.762Z,20.22
2022-09-02T05:13:59.167Z,20.06
2022-09-02T05:16:29.469Z,20.27
2022-09-02T05:18:57.585Z,20.24
2022-09-02T05:21:40.931Z,20.29
2022-09-02T05:49:19.360Z,19.97
2022-09-02T06:03:31.749Z,19.69
2022-09-02T06:06:02.959Z,19.84
2022-09-02T06:08:33.329Z,19.78
2022-09-02T06:11:03.368Z,19.77
2022-09-02T06:13:34.362Z,19.96
2022-09-02T06:16:02.516Z,20.01
2022-09-02T06:18:29.600Z,19.94
2022-09-02T06:20:56.550Z,19.96
2022-09-02T06:23:23.424Z,20.17
2022-09-02T06:25:50.824Z,20.28
2022-09-02T06:28:17.606Z,20.10
2022-09-02T06:30:45.856Z,20.30
2022-09-02T06:33:12.835Z,19.98
2022-09-02T06:35:42.772Z,20.30
2022-09-02T06:38:11.091Z,20.17
2022-09-02T06:40:47.132Z,20.21
2022-09-02T06:43:14.064Z,20.30
2022-09-02T06:45:42.076Z,20.30
2022-09-02T06:48:10.178Z,20.15
2022-09-02T06:50:43.061Z,20.30
2022-09-02T06:53:12.074Z,20.25
2022-09-02T06:55:41.320Z,20.33
2022-09-02T06:58:08.178Z,20.24
2022-09-02T07:00:36.262Z,20.22
2022-09-02T07:03:22.922Z,20.19
2022-09-02T07:06:11.677Z,20.26
2022-09-02T07:08:40.620Z,19.98
2022-09-02T07:11:15.101Z,20.38
2022-09-02T07:13:42.346Z,20.39
2022-09-02T07:16:09.235Z,20.45
2022-09-02T07:18:36.735Z,20.40
2022-09-02T07:21:04.099Z,20.50
2022-09-02T07:23:32.166Z,20.61
2022-09-02T07:25:59.005Z,20.80
2022-09-02T07:28:27.292Z,20.98
2022-09-02T07:30:59.695Z,21.02
2022-09-02T07:33:26.761Z,21.10
2022-09-02T07:35:53.673Z,21.00
2022-09-02T07:38:20.456Z,21.20
2022-09-02T07:40:49.225Z,21.15
2022-09-02T07:43:16.336Z,21.25
2022-09-02T07:45:43.953Z,21.26
2022-09-02T07:48:10.782Z,21.36
2022-09-02T07:50:38.696Z,21.56
2022-09-02T07:53:06.511Z,21.62
2022-09-02T07:55:36.596Z,21.80
2022-09-02T07:58:05.151Z,22.04
2022-09-02T08:00:32.451Z,22.07
2022-09-02T08:03:00.172Z,22.34
2022-09-02T08:05:28.515Z,22.36
2022-09-02T08:07:55.249Z,22.67
2022-09-02T08:10:23.711Z,22.89
2022-09-02T08:12:51.583Z,23.17
2022-09-02T08:15:20.433Z,23.85
2022-09-02T08:17:48.911Z,23.95
2022-09-02T08:20:17.803Z,24.16
2022-09-02T08:22:48.912Z,24.33
2022-09-02T08:25:22.818Z,24.89
2022-09-02T08:27:49.679Z,25.45
2022-09-02T08:30:16.590Z,25.51
2022-09-02T08:32:43.515Z,25.93
2022-09-02T08:35:10.743Z,26.73
2022-09-02T08:37:37.981Z,27.60
2022-09-02T08:40:08.581Z,28.26
2022-09-02T08:42:53.695Z,28.74
2022-09-02T08:45:38.959Z,28.90
2022-09-02T08:48:22.454Z,28.93
2022-09-02T08:50:52.515Z,28.79
2022-09-02T08:53:35.429Z,28.96
2022-09-02T08:56:05.742Z,28.39
2022-09-02T08:58:44.122Z,27.72
2022-09-02T09:01:39.738Z,27.24
2022-09-02T09:04:12.825Z,27.07
2022-09-02T09:06:48.661Z,27.65
2022-09-02T09:09:27.283Z,28.31
2022-09-02T09:12:08.314Z,29.01
2022-09-02T09:14:55.381Z,29.73
2022-09-02T09:17:31.545Z,30.32
2022-09-02T09:20:08.406Z,30.67
2022-09-02T09:22:38.901Z,31.10
2022-09-02T09:25:12.325Z,31.42
2022-09-02T09:27:39.374Z,31.65
2022-09-02T09:30:12.986Z,31.88
2022-09-02T09:32:46.685Z,32.03
2022-09-02T09:35:17.395Z,31.76
2022-09-02T09:37:48.245Z,31.27
2022-09-02T09:40:18.200Z,30.71
2022-09-02T09:42:49.728Z,30.81
2022-09-02T09:45:27.902Z,31.01
2022-09-02T09:48:37.079Z,31.29
2022-09-02T09:51:04.853Z,31.33
2022-09-02T09:53:34.248Z,31.78
2022-09-02T09:56:05.881Z,32.23
2022-09-02T09:58:34.528Z,32.64
2022-09-02T10:01:28.961Z,32.98
2022-09-02T10:03:58.126Z,32.67
2022-09-02T10:06:38.377Z,31.82
2022-09-02T10:09:31.881Z,31.11
2022-09-02T10:12:14.263Z,30.59
2022-09-02T10:14:45.897Z,30.35
2022-09-02T10:17:40.527Z,30.29
2022-09-02T10:20:19.199Z,30.78
2022-09-02T10:22:59.627Z,31.01
2022-09-02T10:25:33.070Z,31.34
2022-09-02T10:28:26.875Z,31.81
2022-09-02T10:31:05.788Z,32.30
2022-09-02T10:34:01.396Z,32.61
2022-09-02T10:36:54.640Z,33.13
2022-09-02T10:39:49.518Z,33.40
2022-09-02T10:42:45.590Z,33.49
2022-09-02T10:45:21.894Z,33.86
2022-09-02T10:47:53.568Z,34.13
2022-09-02T10:50:34.094Z,34.17
2022-09-02T10:53:16.113Z,34.43
2022-09-02T10:55:59.251Z,34.73
2022-09-02T10:58:49.242Z,34.78
2022-09-02T11:01:41.781Z,34.35
2022-09-02T11:04:16.539Z,34.51
2022-09-02T11:07:02.344Z,35.11
2022-09-02T11:09:29.890Z,35.01
2022-09-02T11:12:07.932Z,33.97
2022-09-02T11:14:46.316Z,32.99
2022-09-02T11:17:56.594Z,32.07
2022-09-02T11:20:44.385Z,31.52
2022-09-02T11:23:43.261Z,31.07
2022-09-02T11:26:40.677Z,30.64
2022-09-02T11:29:14.584Z,30.82
2022-09-02T11:31:58.206Z,30.55
2022-09-02T11:34:37.149Z,30.65
2022-09-02T11:37:10.703Z,31.32
2022-09-02T11:40:02.563Z,31.80
2022-09-02T11:42:52.450Z,32.27
2022-09-02T11:45:44.534Z,32.60
2022-09-02T11:48:46.165Z,33.34
2022-09-02T11:51:31.360Z,34.18
2022-09-02T11:54:03.371Z,34.53
2022-09-02T11:56:40.111Z,35.18
2022-09-02T11:59:07.950Z,35.33
2022-09-02T12:01:51.164Z,36.01
2022-09-02T12:07:09.940Z,35.99
2022-09-02T12:12:39.258Z,37.14
2022-09-02T12:15:06.658Z,37.36
2022-09-02T12:17:48.641Z,38.25
2022-09-02T12:20:41.644Z,39.51
2022-09-02T12:23:10.167Z,38.75
2022-09-02T12:25:46.213Z,36.84
2022-09-02T12:28:25.320Z,35.67
2022-09-02T12:31:15.442Z,34.60
2022-09-02T12:33:49.420Z,33.59
2022-09-02T12:36:39.136Z,32.84
2022-09-02T12:39:30.935Z,32.75
2022-09-02T12:42:06.817Z,32.63
2022-09-02T12:44:36.707Z,32.35
2022-09-02T12:47:22.193Z,31.89
2022-09-02T12:50:10.623Z,31.53
2022-09-02T12:52:43.405Z,31.69
2022-09-02T12:55:25.353Z,32.26
2022-09-02T12:57:55.968Z,33.21
2022-09-02T13:00:35.166Z,35.32
2022-09-02T13:03:36.800Z,36.98
2022-09-02T13:06:18.946Z,38.44
2022-09-02T13:09:13.493Z,38.44
2022-09-02T13:12:04.646Z,36.11
2022-09-02T13:14:50.679Z,33.63
2022-09-02T13:17:35.988Z,32.27
2022-09-02T13:20:14.145Z,31.25
2022-09-02T13:23:06.030Z,30.42
2022-09-02T13:25:50.530Z,29.71
2022-09-02T13:28:33.974Z,29.30
2022-09-02T13:31:20.253Z,28.96
2022-09-02T13:33:47.197Z,28.39
2022-09-02T13:36:26.757Z,28.13
2022-09-02T13:38:53.640Z,27.85
2022-09-02T13:41:32.723Z,27.61
2022-09-02T13:44:11.933Z,27.38
2022-09-02T13:46:50.773Z,27.24
2022-09-02T13:49:23.996Z,26.89
2022-09-02T13:51:54.364Z,26.82
2022-09-02T13:54:29.716Z,26.76
2022-09-02T13:56:58.893Z,26.56
2022-09-02T13:59:38.536Z,26.62
2022-09-02T14:02:17.336Z,26.50
2022-09-02T14:04:44.844Z,26.51
2022-09-02T14:07:13.448Z,26.53
2022-09-02T14:09:41.295Z,26.45
2022-09-02T14:12:09.090Z,26.42
2022-09-02T14:14:36.584Z,26.46
2022-09-02T14:17:27.333Z,26.37
2022-09-02T14:20:23.223Z,26.14
2022-09-02T14:22:57.663Z,25.94
2022-09-02T14:25:27.709Z,25.90
2022-09-02T14:27:57.945Z,25.95
2022-09-02T14:30:39.468Z,25.86
2022-09-02T14:33:44.553Z,25.88
2022-09-02T14:36:21.481Z,25.94
2022-09-02T14:38:48.660Z,25.93
2022-09-02T14:41:18.241Z,25.90
2022-09-02T14:43:49.900Z,25.81
2022-09-02T14:46:45.097Z,25.82
2022-09-02T14:49:17.990Z,25.59
2022-09-02T14:51:47.987Z,25.60
2022-09-02T14:54:42.348Z,25.59
2022-09-02T14:57:28.563Z,25.51
2022-09-02T15:00:01.964Z,25.45
2022-09-02T15:02:28.660Z,25.50
2022-09-02T15:04:57.406Z,25.42
2022-09-02T15:07:25.378Z,25.40
2022-09-02T15:09:52.726Z,25.46
2022-09-02T15:12:29.853Z,25.37
2022-09-02T15:14:57.937Z,25.39
2022-09-02T15:17:25.249Z,25.34
2022-09-02T15:19:52.225Z,25.19
2022-09-02T15:22:20.286Z,25.22
2022-09-02T15:24:48.721Z,25.04
2022-09-02T15:27:17.277Z,25.10
2022-09-02T15:29:48.674Z,25.00
2022-09-02T15:32:15.496Z,24.86
2022-09-02T15:34:43.100Z,24.95
2022-09-02T15:37:12.870Z,24.94
2022-09-02T15:39:40.602Z,24.99
2022-09-02T15:42:07.761Z,25.02
2022-09-02T15:44:34.566Z,24.98
2022-09-02T15:47:09.806Z,24.88
2022-09-02T15:54:26.495Z,24.69
2022-09-02T15:57:29.119Z,24.62
2022-09-02T16:08:01.608Z,24.70
2022-09-02T16:10:44.022Z,24.69
2022-09-02T16:23:47.460Z,24.63
2022-09-02T16:26:42.132Z,24.64
2022-09-02T16:29:23.388Z,24.35
2022-09-02T16:32:23.751Z,24.70
2022-09-02T16:35:04.146Z,24.48
2022-09-02T16:37:47.154Z,23.17
2022-09-02T16:40:46.703Z,24.40
2022-09-02T16:43:33.250Z,23.92
2022-09-02T16:46:13.029Z,24.32
2022-09-02T16:49:04.062Z,24.57
2022-09-02T16:51:38.171Z,24.61
2022-09-02T16:54:31.572Z,24.44
2022-09-02T17:00:19.441Z,24.08
2022-09-02T17:03:16.197Z,24.10
2022-09-02T17:08:52.429Z,24.46
2022-09-02T17:11:47.783Z,24.32
2022-09-02T17:14:38.838Z,24.16
2022-09-02T17:17:24.680Z,24.25
2022-09-02T17:20:17.439Z,23.50
2022-09-02T17:22:57.056Z,23.50
2022-09-02T17:25:33.216Z,24.28
2022-09-02T17:28:04.470Z,23.87
2022-09-02T17:30:34.061Z,23.79
2022-09-02T17:33:09.517Z,23.94
2022-09-02T17:35:42.629Z,23.50
2022-09-02T17:38:16.208Z,23.75
2022-09-02T17:41:05.108Z,23.85
2022-09-02T17:43:40.955Z,23.62
2022-09-02T17:46:15.241Z,23.89
2022-09-02T17:49:12.964Z,23.65
2022-09-02T17:51:43.943Z,23.52
2022-09-02T17:54:25.637Z,23.68
2022-09-02T17:57:30.367Z,22.85
2022-09-02T18:00:22.812Z,22.96
2022-09-02T18:03:38.240Z,23.67
2022-09-02T18:06:28.691Z,23.07
2022-09-02T18:09:10.948Z,23.16
2022-09-02T18:11:48.918Z,22.39
2022-09-02T18:14:32.645Z,23.81
2022-09-02T18:17:19.005Z,23.04
2022-09-02T18:20:16.864Z,23.79
2022-09-02T18:23:20.777Z,22.42
2022-09-02T18:26:29.880Z,22.43
2022-09-02T18:29:23.130Z,23.65
2022-09-02T18:32:09.836Z,23.51
2022-09-02T18:35:15.939Z,22.23
2022-09-02T18:38:21.364Z,22.59
2022-09-02T18:41:35.291Z,22.69
2022-09-02T18:44:23.147Z,22.64
2022-09-02T18:47:07.367Z,22.55
2022-09-02T18:49:40.462Z,22.73
2022-09-02T18:52:17.033Z,22.06
2022-09-02T18:54:57.805Z,22.52
2022-09-02T18:57:33.652Z,23.45
2022-09-02T19:00:19.337Z,22.05
2022-09-02T19:03:06.347Z,23.04
2022-09-02T19:05:43.440Z,23.03
2022-09-02T19:08:41.893Z,22.37
2022-09-02T19:11:18.983Z,23.22
2022-09-02T19:13:50.519Z,23.68
2022-09-02T19:16:26.123Z,23.70
2022-09-02T19:19:01.479Z,23.71
2022-09-02T19:21:49.790Z,23.34
2022-09-02T19:24:26.375Z,22.77
2022-09-02T19:27:07.538Z,22.77
2022-09-02T19:29:41.862Z,22.41
2022-09-02T19:32:17.579Z,22.31
2022-09-02T19:34:48.291Z,21.71
2022-09-02T19:37:19.966Z,22.23
2022-09-02T19:39:59.456Z,22.01
2022-09-02T19:42:33.483Z,21.03
2022-09-02T19:48:09.230Z,20.96
2022-09-02T19:50:47.968Z,21.48
2022-09-02T19:53:34.141Z,21.43
2022-09-02T19:56:22.889Z,21.33
2022-09-02T19:59:04.183Z,21.23
2022-09-02T20:01:40.756Z,21.15
2022-09-02T20:04:17.671Z,20.81
2022-09-02T20:06:45.320Z,21.41
2022-09-02T20:09:17.775Z,21.14
2022-09-02T20:11:58.640Z,20.96
2022-09-02T20:14:32.338Z,21.49
2022-09-02T20:17:10.325Z,21.46
2022-09-02T20:19:48.574Z,20.75
2022-09-02T20:22:28.756Z,20.58
2022-09-02T20:25:06.404Z,21.24
2022-09-02T20:27:59.100Z,21.37
2022-09-02T20:30:48.523Z,20.63
2022-09-02T20:33:18.572Z,21.09
2022-09-02T20:35:45.901Z,21.13
2022-09-02T20:38:32.398Z,20.87
2022-09-02T20:41:08.667Z,21.15
2022-09-02T20:44:06.663Z,21.13
2022-09-02T20:46:49.262Z,21.15
2022-09-02T20:49:59.237Z,21.36
2022-09-02T20:52:44.344Z,21.54
2022-09-02T20:55:29.591Z,20.94
2022-09-02T20:58:24.156Z,21.44
2022-09-02T21:01:14.055Z,20.83
2022-09-02T21:04:24.698Z,21.10
2022-09-02T21:07:26.355Z,20.66
2022-09-02T21:10:19.687Z,20.92
2022-09-02T21:13:14.634Z,20.84
2022-09-02T21:16:04.889Z,20.17
2022-09-02T21:18:57.151Z,19.94
2022-09-02T21:21:33.247Z,19.89
2022-09-02T21:24:46.902Z,20.07
2022-09-02T21:27:39.341Z,20.11
2022-09-02T21:30:16.042Z,19.46
2022-09-02T21:32:49.806Z,20.24
2022-09-02T21:35:56.931Z,20.00
2022-09-02T21:38:42.581Z,19.64
2022-09-02T21:41:47.832Z,19.32
2022-09-02T21:44:30.298Z,19.97
2022-09-02T21:47:29.371Z,20.00
2022-09-02T21:50:28.906Z,19.35
2022-09-02T21:53:06.663Z,20.01
2022-09-02T21:55:55.617Z,19.84
2022-09-02T21:58:56.647Z,19.94
2022-09-02T22:02:06.334Z,19.75
2022-09-02T22:05:00.397Z,19.85
2022-09-02T22:08:00.141Z,19.84
2022-09-02T22:13:35.264Z,19.78
2022-09-02T22:16:23.502Z,19.93
2022-09-02T22:19:10.058Z,19.93
2022-09-02T22:21:57.897Z,19.78
2022-09-02T22:24:39.388Z,19.81
2022-09-02T22:27:27.596Z,19.74
2022-09-02T22:30:27.684Z,19.47
2022-09-02T22:36:36.711Z,19.23
2022-09-02T22:39:17.082Z,19.60
2022-09-02T22:42:42.681Z,19.22
2022-09-02T22:46:01.852Z,19.39
2022-09-02T22:49:18.532Z,19.15
2022-09-02T22:52:24.930Z,18.77
2022-09-02T22:54:59.850Z,19.51
2022-09-02T22:57:54.089Z,19.49
2022-09-02T23:00:33.525Z,19.12
2022-09-02T23:03:43.313Z,19.48
2022-09-02T23:06:31.606Z,18.63
2022-09-02T23:09:18.743Z,18.68
2022-09-02T23:12:15.858Z,18.60
2022-09-02T23:14:57.188Z,19.50
2022-09-02T23:17:43.508Z,19.46
2022-09-02T23:20:24.209Z,19.42
2022-09-02T23:23:27.608Z,19.36
2022-09-02T23:26:31.421Z,19.39
2022-09-02T23:29:33.658Z,19.35
2022-09-02T23:32:30.554Z,19.37
2022-09-02T23:35:38.338Z,19.33
2022-09-02T23:38:31.398Z,19.32
2022-09-02T23:41:15.375Z,18.81
2022-09-02T23:46:34.422Z,19.46
2022-09-02T23:49:15.525Z,19.37
2022-09-02T23:52:12.656Z,19.45
2022-09-02T23:54:50.484Z,19.48
2022-09-02T23:57:53.406Z,18.60
